sensor_id;sensor_type;location;lat;lon;timestamp;pressure;altitude;pressure_sealevel;temperature;humidity
60871;BME280;46714;50.118;14.462;2024-02-16T00:00:00;99140.72;;;6.08;100.00
60871;BME280;46714;50.118;14.462;2024-02-16T00:02:26;99138.22;;;6.07;100.00
60871;BME280;46714;50.118;14.462;2024-02-16T00:04:51;99139.41;;;6.04;100.00
60871;BME280;46714;50.118;14.462;2024-02-16T00:07:17;99139.63;;;6.03;100.00
60871;BME280;46714;50.118;14.462;2024-02-16T00:09:42;99149.78;;;6.01;100.00
60871;BME280;46714;50.118;14.462;2024-02-16T00:12:08;99144.56;;;5.99;100.00
60871;BME280;46714;50.118;14.462;2024-02-16T00:14:33;99146.59;;;5.97;100.00
60871;BME280;46714;50.118;14.462;2024-02-16T00:16:58;99144.94;;;5.96;100.00
60871;BME280;46714;50.118;14.462;2024-02-16T00:19:24;99139.00;;;5.93;100.00
60871;BME280;46714;50.118;14.462;2024-02-16T00:21:50;99155.22;;;5.93;100.00
60871;BME280;46714;50.118;14.462;2024-02-16T00:24:16;99150.19;;;5.90;100.00
60871;BME280;46714;50.118;14.462;2024-02-16T00:26:41;99144.81;;;5.90;100.00
60871;BME280;46714;50.118;14.462;2024-02-16T00:29:08;99143.31;;;5.87;100.00
60871;BME280;46714;50.118;14.462;2024-02-16T00:31:33;99148.06;;;5.85;100.00
60871;BME280;46714;50.118;14.462;2024-02-16T00:33:59;99150.94;;;5.83;100.00
60871;BME280;46714;50.118;14.462;2024-02-16T00:36:26;99144.22;;;5.79;100.00
60871;BME280;46714;50.118;14.462;2024-02-16T00:38:52;99147.13;;;5.78;100.00
60871;BME280;46714;50.118;14.462;2024-02-16T00:41:21;99142.06;;;5.75;100.00
60871;BME280;46714;50.118;14.462;2024-02-16T00:43:47;99139.75;;;5.72;100.00
60871;BME280;46714;50.118;14.462;2024-02-16T00:46:12;99131.81;;;5.70;100.00
60871;BME280;46714;50.118;14.462;2024-02-16T00:48:37;99128.50;;;5.68;100.00
60871;BME280;46714;50.118;14.462;2024-02-16T00:51:03;99127.63;;;5.67;100.00
60871;BME280;46714;50.118;14.462;2024-02-16T00:53:28;99126.13;;;5.65;100.00
60871;BME280;46714;50.118;14.462;2024-02-16T00:55:54;99128.19;;;5.63;100.00
60871;BME280;46714;50.118;14.462;2024-02-16T00:58:19;99125.47;;;5.63;100.00
60871;BME280;46714;50.118;14.462;2024-02-16T01:00:44;99117.59;;;5.61;100.00
60871;BME280;46714;50.118;14.462;2024-02-16T01:03:10;99126.03;;;5.58;100.00
60871;BME280;46714;50.118;14.462;2024-02-16T01:05:37;99115.44;;;5.57;100.00
60871;BME280;46714;50.118;14.462;2024-02-16T01:08:03;99120.84;;;5.57;100.00
60871;BME280;46714;50.118;14.462;2024-02-16T01:10:28;99121.84;;;5.56;100.00
60871;BME280;46714;50.118;14.462;2024-02-16T01:12:53;99109.56;;;5.53;100.00
60871;BME280;46714;50.118;14.462;2024-02-16T01:15:20;99116.81;;;5.53;100.00
60871;BME280;46714;50.118;14.462;2024-02-16T01:17:46;99112.91;;;5.55;100.00
60871;BME280;46714;50.118;14.462;2024-02-16T01:20:11;99116.06;;;5.59;100.00
60871;BME280;46714;50.118;14.462;2024-02-16T01:22:37;99105.56;;;5.64;100.00
60871;BME280;46714;50.118;14.462;2024-02-16T01:25:04;99102.31;;;5.69;100.00
60871;BME280;46714;50.118;14.462;2024-02-16T01:27:29;99104.25;;;5.75;100.00
60871;BME280;46714;50.118;14.462;2024-02-16T01:29:55;99111.81;;;5.79;100.00
60871;BME280;46714;50.118;14.462;2024-02-16T01:32:22;99111.44;;;5.82;100.00
60871;BME280;46714;50.118;14.462;2024-02-16T01:34:47;99113.13;;;5.83;100.00
60871;BME280;46714;50.118;14.462;2024-02-16T01:37:14;99110.06;;;5.86;100.00
60871;BME280;46714;50.118;14.462;2024-02-16T01:39:40;99107.38;;;5.86;100.00
60871;BME280;46714;50.118;14.462;2024-02-16T01:42:05;99107.38;;;5.86;100.00
60871;BME280;46714;50.118;14.462;2024-02-16T01:44:31;99115.75;;;5.92;100.00
60871;BME280;46714;50.118;14.462;2024-02-16T01:46:56;99119.56;;;5.97;100.00
60871;BME280;46714;50.118;14.462;2024-02-16T01:49:21;99118.56;;;5.98;100.00
60871;BME280;46714;50.118;14.462;2024-02-16T01:51:47;99111.69;;;5.96;100.00
60871;BME280;46714;50.118;14.462;2024-02-16T01:54:13;99117.41;;;5.93;100.00
60871;BME280;46714;50.118;14.462;2024-02-16T01:56:42;99108.63;;;5.91;100.00
60871;BME280;46714;50.118;14.462;2024-02-16T01:59:09;99108.38;;;5.85;100.00
60871;BME280;46714;50.118;14.462;2024-02-16T02:01:34;99113.13;;;5.83;100.00
60871;BME280;46714;50.118;14.462;2024-02-16T02:04:00;99109.09;;;5.79;100.00
60871;BME280;46714;50.118;14.462;2024-02-16T02:06:26;99112.19;;;5.76;100.00
60871;BME280;46714;50.118;14.462;2024-02-16T02:08:52;99105.28;;;5.74;100.00
60871;BME280;46714;50.118;14.462;2024-02-16T02:11:17;99100.06;;;5.72;100.00
60871;BME280;46714;50.118;14.462;2024-02-16T02:13:42;99111.91;;;5.71;100.00
60871;BME280;46714;50.118;14.462;2024-02-16T02:16:08;99105.66;;;5.71;100.00
60871;BME280;46714;50.118;14.462;2024-02-16T02:18:35;99104.19;;;5.68;100.00
60871;BME280;46714;50.118;14.462;2024-02-16T02:21:00;99099.13;;;5.65;100.00
60871;BME280;46714;50.118;14.462;2024-02-16T02:23:26;99102.00;;;5.63;100.00
60871;BME280;46714;50.118;14.462;2024-02-16T02:25:51;99097.81;;;5.61;100.00
60871;BME280;46714;50.118;14.462;2024-02-16T02:28:16;99091.75;;;5.59;100.00
60871;BME280;46714;50.118;14.462;2024-02-16T02:30:43;99092.78;;;5.58;100.00
60871;BME280;46714;50.118;14.462;2024-02-16T02:33:10;99086.75;;;5.56;100.00
60871;BME280;46714;50.118;14.462;2024-02-16T02:35:37;99086.91;;;5.54;100.00
60871;BME280;46714;50.118;14.462;2024-02-16T02:38:03;99082.72;;;5.52;100.00
60871;BME280;46714;50.118;14.462;2024-02-16T02:40:29;99078.53;;;5.49;100.00
60871;BME280;46714;50.118;14.462;2024-02-16T02:42:55;99078.09;;;5.45;100.00
60871;BME280;46714;50.118;14.462;2024-02-16T02:45:20;99077.59;;;5.42;100.00
60871;BME280;46714;50.118;14.462;2024-02-16T02:47:45;99076.78;;;5.41;100.00
60871;BME280;46714;50.118;14.462;2024-02-16T02:50:11;99074.25;;;5.40;100.00
60871;BME280;46714;50.118;14.462;2024-02-16T02:52:37;99075.28;;;5.39;100.00
60871;BME280;46714;50.118;14.462;2024-02-16T02:55:03;99072.94;;;5.36;100.00
60871;BME280;46714;50.118;14.462;2024-02-16T02:57:28;99069.59;;;5.34;100.00
60871;BME280;46714;50.118;14.462;2024-02-16T03:00:00;99074.34;;;5.32;100.00
60871;BME280;46714;50.118;14.462;2024-02-16T03:02:31;99071.97;;;5.29;100.00
60871;BME280;46714;50.118;14.462;2024-02-16T03:04:57;99079.25;;;5.28;100.00
60871;BME280;46714;50.118;14.462;2024-02-16T03:07:22;99080.47;;;5.25;100.00
60871;BME280;46714;50.118;14.462;2024-02-16T03:09:48;99068.34;;;5.21;100.00
60871;BME280;46714;50.118;14.462;2024-02-16T03:12:13;99076.63;;;5.20;100.00
60871;BME280;46714;50.118;14.462;2024-02-16T03:14:39;99072.25;;;5.19;100.00
60871;BME280;46714;50.118;14.462;2024-02-16T03:17:04;99070.94;;;5.15;100.00
60871;BME280;46714;50.118;14.462;2024-02-16T03:19:29;99072.13;;;5.12;100.00
60871;BME280;46714;50.118;14.462;2024-02-16T03:21:55;99074.19;;;5.10;100.00
60871;BME280;46714;50.118;14.462;2024-02-16T03:24:20;99072.69;;;5.08;100.00
60871;BME280;46714;50.118;14.462;2024-02-16T03:26:47;99081.97;;;5.05;100.00
60871;BME280;46714;50.118;14.462;2024-02-16T03:29:13;99074.06;;;5.03;100.00
60871;BME280;46714;50.118;14.462;2024-02-16T03:31:39;99080.88;;;4.99;100.00
60871;BME280;46714;50.118;14.462;2024-02-16T03:34:04;99077.66;;;4.96;100.00
60871;BME280;46714;50.118;14.462;2024-02-16T03:36:29;99080.75;;;4.93;100.00
60871;BME280;46714;50.118;14.462;2024-02-16T03:38:55;99083.63;;;4.91;100.00
60871;BME280;46714;50.118;14.462;2024-02-16T03:41:21;99081.47;;;4.87;100.00
60871;BME280;46714;50.118;14.462;2024-02-16T03:43:48;99076.44;;;4.83;100.00
60871;BME280;46714;50.118;14.462;2024-02-16T03:46:14;99076.97;;;4.79;100.00
60871;BME280;46714;50.118;14.462;2024-02-16T03:48:40;99075.44;;;4.76;100.00
60871;BME280;46714;50.118;14.462;2024-02-16T03:51:05;99066.91;;;4.73;100.00
60871;BME280;46714;50.118;14.462;2024-02-16T03:53:31;99076.34;;;4.69;100.00
60871;BME280;46714;50.118;14.462;2024-02-16T03:55:56;99077.56;;;4.66;100.00
60871;BME280;46714;50.118;14.462;2024-02-16T03:58:22;99075.03;;;4.65;100.00
60871;BME280;46714;50.118;14.462;2024-02-16T04:00:48;99074.38;;;4.62;100.00
60871;BME280;46714;50.118;14.462;2024-02-16T04:03:17;99071.03;;;4.60;100.00
60871;BME280;46714;50.118;14.462;2024-02-16T04:05:43;99074.91;;;4.58;100.00
60871;BME280;46714;50.118;14.462;2024-02-16T04:08:08;99079.47;;;4.57;100.00
60871;BME280;46714;50.118;14.462;2024-02-16T04:10:34;99076.97;;;4.56;100.00
60871;BME280;46714;50.118;14.462;2024-02-16T04:13:00;99080.00;;;4.53;100.00
60871;BME280;46714;50.118;14.462;2024-02-16T04:15:25;99071.91;;;4.53;100.00
60871;BME280;46714;50.118;14.462;2024-02-16T04:17:51;99071.91;;;4.53;100.00
60871;BME280;46714;50.118;14.462;2024-02-16T04:20:17;99073.78;;;4.52;100.00
60871;BME280;46714;50.118;14.462;2024-02-16T04:22:43;99070.03;;;4.53;100.00
60871;BME280;46714;50.118;14.462;2024-02-16T04:25:08;99070.03;;;4.53;100.00
60871;BME280;46714;50.118;14.462;2024-02-16T04:27:37;99074.44;;;4.54;100.00
60871;BME280;46714;50.118;14.462;2024-02-16T04:30:03;99070.03;;;4.53;100.00
60871;BME280;46714;50.118;14.462;2024-02-16T04:32:30;99081.50;;;4.55;100.00
60871;BME280;46714;50.118;14.462;2024-02-16T04:34:55;99086.06;;;4.55;100.00
60871;BME280;46714;50.118;14.462;2024-02-16T04:37:23;99083.34;;;4.55;100.00
60871;BME280;46714;50.118;14.462;2024-02-16T04:39:50;99085.38;;;4.53;100.00
60871;BME280;46714;50.118;14.462;2024-02-16T04:42:16;99094.66;;;4.50;100.00
60871;BME280;46714;50.118;14.462;2024-02-16T04:44:41;99095.69;;;4.49;100.00
60871;BME280;46714;50.118;14.462;2024-02-16T04:47:07;99092.13;;;4.49;100.00
60871;BME280;46714;50.118;14.462;2024-02-16T04:49:34;99106.28;;;4.51;100.00
60871;BME280;46714;50.118;14.462;2024-02-16T04:51:59;99104.25;;;4.53;100.00
60871;BME280;46714;50.118;14.462;2024-02-16T04:54:24;99101.38;;;4.54;100.00
60871;BME280;46714;50.118;14.462;2024-02-16T04:56:50;99103.06;;;4.55;100.00
60871;BME280;46714;50.118;14.462;2024-02-16T04:59:18;99094.13;;;4.55;100.00
60871;BME280;46714;50.118;14.462;2024-02-16T05:01:44;99101.38;;;4.54;100.00
60871;BME280;46714;50.118;14.462;2024-02-16T05:04:12;99105.09;;;4.53;100.00
60871;BME280;46714;50.118;14.462;2024-02-16T05:06:41;99099.69;;;4.53;100.00
60871;BME280;46714;50.118;14.462;2024-02-16T05:09:07;99088.06;;;4.53;100.00
60871;BME280;46714;50.118;14.462;2024-02-16T05:11:33;99090.97;;;4.51;100.00
60871;BME280;46714;50.118;14.462;2024-02-16T05:13:58;99084.91;;;4.49;100.00
60871;BME280;46714;50.118;14.462;2024-02-16T05:16:24;99085.09;;;4.48;100.00
60871;BME280;46714;50.118;14.462;2024-02-16T05:18:49;99086.75;;;4.49;100.00
60871;BME280;46714;50.118;14.462;2024-02-16T05:21:15;99084.25;;;4.47;100.00
60871;BME280;46714;50.118;14.462;2024-02-16T05:23:41;99075.13;;;4.48;100.00
60871;BME280;46714;50.118;14.462;2024-02-16T05:26:06;99072.28;;;4.50;100.00
60871;BME280;46714;50.118;14.462;2024-02-16T05:28:32;99066.88;;;4.50;100.00
60871;BME280;46714;50.118;14.462;2024-02-16T05:30:57;99062.31;;;4.50;100.00
60871;BME280;46714;50.118;14.462;2024-02-16T05:33:29;99063.16;;;4.51;100.00
60871;BME280;46714;50.118;14.462;2024-02-16T05:35:54;99072.28;;;4.50;100.00
60871;BME280;46714;50.118;14.462;2024-02-16T05:38:23;99072.44;;;4.48;100.00
60871;BME280;46714;50.118;14.462;2024-02-16T05:41:00;99074.66;;;4.45;100.00
60871;BME280;46714;50.118;14.462;2024-02-16T05:43:25;99076.34;;;4.46;100.00
60871;BME280;46714;50.118;14.462;2024-02-16T05:45:51;99084.06;;;4.49;100.00
60871;BME280;46714;50.118;14.462;2024-02-16T05:48:16;99090.09;;;4.51;100.00
60871;BME280;46714;50.118;14.462;2024-02-16T05:50:41;99088.06;;;4.53;100.00
60871;BME280;46714;50.118;14.462;2024-02-16T05:53:09;99094.81;;;4.57;100.00
60871;BME280;46714;50.118;14.462;2024-02-16T05:55:35;99100.69;;;4.60;100.00
60871;BME280;46714;50.118;14.462;2024-02-16T05:58:01;99093.22;;;4.62;100.00
60871;BME280;46714;50.118;14.462;2024-02-16T06:00:26;99102.00;;;4.65;100.00
60871;BME280;46714;50.118;14.462;2024-02-16T06:02:52;99112.78;;;4.65;100.00
60871;BME280;46714;50.118;14.462;2024-02-16T06:05:18;99110.75;;;4.67;100.00
60871;BME280;46714;50.118;14.462;2024-02-16T06:07:45;99116.97;;;4.67;100.00
60871;BME280;46714;50.118;14.462;2024-02-16T06:10:10;99109.91;;;4.66;100.00
60871;BME280;46714;50.118;14.462;2024-02-16T06:12:37;99114.47;;;4.66;100.00
60871;BME280;46714;50.118;14.462;2024-02-16T06:15:05;99111.78;;;4.66;100.00
60871;BME280;46714;50.118;14.462;2024-02-16T06:17:31;99119.03;;;4.65;100.00
60871;BME280;46714;50.118;14.462;2024-02-16T06:19:56;99120.69;;;4.66;100.00
60871;BME280;46714;50.118;14.462;2024-02-16T06:22:22;99122.34;;;4.67;100.00
60871;BME280;46714;50.118;14.462;2024-02-16T06:24:47;99114.09;;;4.69;100.00
60871;BME280;46714;50.118;14.462;2024-02-16T06:27:12;99116.78;;;4.69;100.00
60871;BME280;46714;50.118;14.462;2024-02-16T06:29:38;99112.91;;;4.71;100.00
60871;BME280;46714;50.118;14.462;2024-02-16T06:32:03;99117.97;;;4.74;100.00
60871;BME280;46714;50.118;14.462;2024-02-16T06:34:29;99119.09;;;4.80;100.00
60871;BME280;46714;50.118;14.462;2024-02-16T06:36:55;99124.78;;;4.85;100.00
60871;BME280;46714;50.118;14.462;2024-02-16T06:39:21;99134.56;;;4.86;100.00
60871;BME280;46714;50.118;14.462;2024-02-16T06:41:47;99128.97;;;4.88;100.00
60871;BME280;46714;50.118;14.462;2024-02-16T06:44:12;99130.50;;;4.90;100.00
60871;BME280;46714;50.118;14.462;2024-02-16T06:46:38;99139.59;;;4.89;100.00
60871;BME280;46714;50.118;14.462;2024-02-16T06:49:03;99145.66;;;4.91;100.00
60871;BME280;46714;50.118;14.462;2024-02-16T06:51:29;99152.72;;;4.92;100.00
60871;BME280;46714;50.118;14.462;2024-02-16T06:53:54;99155.22;;;4.94;100.00
60871;BME280;46714;50.118;14.462;2024-02-16T06:56:20;99156.94;;;4.95;100.00
60871;BME280;46714;50.118;14.462;2024-02-16T06:58:46;99162.13;;;4.96;100.00
60871;BME280;46714;50.118;14.462;2024-02-16T07:01:14;99154.03;;;4.96;100.00
60871;BME280;46714;50.118;14.462;2024-02-16T07:03:40;99163.81;;;4.97;100.00
60871;BME280;46714;50.118;14.462;2024-02-16T07:06:06;99159.72;;;5.01;100.00
60871;BME280;46714;50.118;14.462;2024-02-16T07:08:38;99158.72;;;5.02;100.00
60871;BME280;46714;50.118;14.462;2024-02-16T07:11:06;99158.34;;;5.06;100.00
60871;BME280;46714;50.118;14.462;2024-02-16T07:13:31;99152.97;;;5.06;100.00
60871;BME280;46714;50.118;14.462;2024-02-16T07:15:58;99160.03;;;5.07;100.00
60871;BME280;46714;50.118;14.462;2024-02-16T07:18:24;99162.91;;;5.05;100.00
60871;BME280;46714;50.118;14.462;2024-02-16T07:20:49;99167.09;;;5.08;100.00
60871;BME280;46714;50.118;14.462;2024-02-16T07:23:14;99164.69;;;5.13;100.00
60871;BME280;46714;50.118;14.462;2024-02-16T07:25:40;99170.75;;;5.15;100.00
60871;BME280;46714;50.118;14.462;2024-02-16T07:28:06;99168.56;;;5.18;100.00
60871;BME280;46714;50.118;14.462;2024-02-16T07:30:33;99170.22;;;5.19;100.00
60871;BME280;46714;50.118;14.462;2024-02-16T07:32:58;99170.72;;;5.23;100.00
60871;BME280;46714;50.118;14.462;2024-02-16T07:35:24;99171.72;;;5.22;100.00
60871;BME280;46714;50.118;14.462;2024-02-16T07:37:50;99184.38;;;5.21;100.00
60871;BME280;46714;50.118;14.462;2024-02-16T07:40:18;99174.63;;;5.20;100.00
60871;BME280;46714;50.118;14.462;2024-02-16T07:42:44;99175.09;;;5.24;100.00
60871;BME280;46714;50.118;14.462;2024-02-16T07:45:10;99174.38;;;5.30;100.00
60871;BME280;46714;50.118;14.462;2024-02-16T07:47:37;99171.28;;;5.33;100.00
60871;BME280;46714;50.118;14.462;2024-02-16T07:50:11;99164.06;;;5.34;100.00
60871;BME280;46714;50.118;14.462;2024-02-16T07:52:38;99165.56;;;5.36;100.00
60871;BME280;46714;50.118;14.462;2024-02-16T07:55:04;99166.00;;;5.40;100.00
60871;BME280;46714;50.118;14.462;2024-02-16T07:57:30;99165.84;;;5.41;100.00
60871;BME280;46714;50.118;14.462;2024-02-16T07:59:56;99166.50;;;5.43;100.00
60871;BME280;46714;50.118;14.462;2024-02-16T08:02:21;99154.50;;;5.46;100.00
60871;BME280;46714;50.118;14.462;2024-02-16T08:04:49;99162.44;;;5.48;100.00
60871;BME280;46714;50.118;14.462;2024-02-16T08:07:15;99158.69;;;5.49;100.00
60871;BME280;46714;50.118;14.462;2024-02-16T08:09:44;99167.44;;;5.51;100.00
60871;BME280;46714;50.118;14.462;2024-02-16T08:12:10;99163.53;;;5.53;100.00
60871;BME280;46714;50.118;14.462;2024-02-16T08:14:35;99152.19;;;5.58;100.00
60871;BME280;46714;50.118;14.462;2024-02-16T08:17:01;99161.41;;;5.63;100.00
60871;BME280;46714;50.118;14.462;2024-02-16T08:19:36;99159.69;;;5.71;100.00
60871;BME280;46714;50.118;14.462;2024-02-16T08:22:02;99163.97;;;5.80;100.00
60871;BME280;46714;50.118;14.462;2024-02-16T08:24:32;99166.41;;;5.90;100.00
60871;BME280;46714;50.118;14.462;2024-02-16T08:27:01;99168.69;;;6.01;100.00
60871;BME280;46714;50.118;14.462;2024-02-16T08:29:27;99162.81;;;6.12;100.00
60871;BME280;46714;50.118;14.462;2024-02-16T08:31:53;99176.16;;;6.28;100.00
60871;BME280;46714;50.118;14.462;2024-02-16T08:34:19;99175.03;;;6.38;100.00
60871;BME280;46714;50.118;14.462;2024-02-16T08:36:45;99179.50;;;6.45;100.00
60871;BME280;46714;50.118;14.462;2024-02-16T08:39:14;99167.94;;;6.52;100.00
60871;BME280;46714;50.118;14.462;2024-02-16T08:41:42;99166.97;;;6.59;100.00
60871;BME280;46714;50.118;14.462;2024-02-16T08:44:13;99160.63;;;6.67;100.00
60871;BME280;46714;50.118;14.462;2024-02-16T08:46:39;99169.84;;;6.72;100.00
60871;BME280;46714;50.118;14.462;2024-02-16T08:49:05;99159.28;;;6.78;100.00
60871;BME280;46714;50.118;14.462;2024-02-16T08:51:31;99152.06;;;6.85;100.00
60871;BME280;46714;50.118;14.462;2024-02-16T08:53:57;99150.31;;;6.92;100.00
60871;BME280;46714;50.118;14.462;2024-02-16T08:56:23;99157.00;;;6.96;100.00
60871;BME280;46714;50.118;14.462;2024-02-16T08:58:48;99155.59;;;7.00;100.00
60871;BME280;46714;50.118;14.462;2024-02-16T09:01:14;99155.59;;;7.00;100.00
60871;BME280;46714;50.118;14.462;2024-02-16T09:03:41;99154.19;;;7.04;100.00
60871;BME280;46714;50.118;14.462;2024-02-16T09:06:07;99153.13;;;7.05;100.00
60871;BME280;46714;50.118;14.462;2024-02-16T09:08:32;99159.41;;;7.06;100.00
60871;BME280;46714;50.118;14.462;2024-02-16T09:11:00;99162.69;;;7.01;100.00
60871;BME280;46714;50.118;14.462;2024-02-16T09:13:25;99163.06;;;6.98;100.00
60871;BME280;46714;50.118;14.462;2024-02-16T09:15:51;99163.34;;;7.03;100.00
60871;BME280;46714;50.118;14.462;2024-02-16T09:18:18;99160.06;;;7.08;100.00
60871;BME280;46714;50.118;14.462;2024-02-16T09:20:44;99166.56;;;7.13;100.00
60871;BME280;46714;50.118;14.462;2024-02-16T09:23:09;99163.28;;;7.18;100.00
60871;BME280;46714;50.118;14.462;2024-02-16T09:25:35;99171.84;;;7.22;100.00
60871;BME280;46714;50.118;14.462;2024-02-16T09:28:00;99170.81;;;7.23;100.00
60871;BME280;46714;50.118;14.462;2024-02-16T09:30:26;99171.28;;;7.26;100.00
60871;BME280;46714;50.118;14.462;2024-02-16T09:32:51;99171.53;;;7.31;100.00
60871;BME280;46714;50.118;14.462;2024-02-16T09:35:17;99171.34;;;7.33;100.00
60871;BME280;46714;50.118;14.462;2024-02-16T09:37:42;99175.31;;;7.37;100.00
60871;BME280;46714;50.118;14.462;2024-02-16T09:40:08;99179.72;;;7.38;100.00
60871;BME280;46714;50.118;14.462;2024-02-16T09:42:37;99175.13;;;7.39;100.00
60871;BME280;46714;50.118;14.462;2024-02-16T09:45:03;99174.94;;;7.40;100.00
60871;BME280;46714;50.118;14.462;2024-02-16T09:47:31;99181.84;;;7.43;100.00
60871;BME280;46714;50.118;14.462;2024-02-16T09:49:59;99180.03;;;7.50;100.00
60871;BME280;46714;50.118;14.462;2024-02-16T09:52:25;99168.66;;;7.61;100.00
60871;BME280;46714;50.118;14.462;2024-02-16T09:54:51;99176.91;;;7.74;100.00
60871;BME280;46714;50.118;14.462;2024-02-16T09:57:17;99169.72;;;7.88;100.00
60871;BME280;46714;50.118;14.462;2024-02-16T09:59:43;99172.72;;;8.00;100.00
60871;BME280;46714;50.118;14.462;2024-02-16T10:02:08;99173.66;;;8.14;100.00
60871;BME280;46714;50.118;14.462;2024-02-16T10:04:34;99170.75;;;8.15;100.00
60871;BME280;46714;50.118;14.462;2024-02-16T10:06:59;99168.41;;;8.12;100.00
60871;BME280;46714;50.118;14.462;2024-02-16T10:09:25;99168.88;;;8.16;100.00
60871;BME280;46714;50.118;14.462;2024-02-16T10:11:52;99171.75;;;8.14;100.00
60871;BME280;46714;50.118;14.462;2024-02-16T10:14:17;99166.16;;;8.16;100.00
60871;BME280;46714;50.118;14.462;2024-02-16T10:16:44;99172.22;;;8.18;100.00
60871;BME280;46714;50.118;14.462;2024-02-16T10:19:11;99169.69;;;8.16;100.00
60871;BME280;46714;50.118;14.462;2024-02-16T10:21:37;99171.16;;;8.19;100.00
60871;BME280;46714;50.118;14.462;2024-02-16T10:26:33;99181.25;;;8.32;100.00
60871;BME280;46714;50.118;14.462;2024-02-16T10:29:02;99177.31;;;8.34;100.00
60871;BME280;46714;50.118;14.462;2024-02-16T10:31:29;99171.06;;;8.34;100.00
60871;BME280;46714;50.118;14.462;2024-02-16T10:33:59;99166.47;;;8.34;100.00
60871;BME280;46714;50.118;14.462;2024-02-16T10:36:32;99170.66;;;8.37;100.00
60871;BME280;46714;50.118;14.462;2024-02-16T10:38:59;99174.78;;;8.33;100.00
60871;BME280;46714;50.118;14.462;2024-02-16T10:41:27;99157.69;;;8.32;100.00
60871;BME280;46714;50.118;14.462;2024-02-16T10:43:55;99150.38;;;8.33;100.00
60871;BME280;46714;50.118;14.462;2024-02-16T10:46:22;99156.91;;;8.38;100.00
60871;BME280;46714;50.118;14.462;2024-02-16T10:48:49;99150.69;;;8.45;100.00
60871;BME280;46714;50.118;14.462;2024-02-16T10:51:15;99149.44;;;8.47;100.00
60871;BME280;46714;50.118;14.462;2024-02-16T10:53:45;99144.03;;;8.54;100.00
60871;BME280;46714;50.118;14.462;2024-02-16T10:56:12;99140.69;;;8.52;100.00
60871;BME280;46714;50.118;14.462;2024-02-16T10:58:38;99145.97;;;8.60;100.00
60871;BME280;46714;50.118;14.462;2024-02-16T11:01:09;99140.13;;;8.70;100.00
60871;BME280;46714;50.118;14.462;2024-02-16T11:03:38;99131.00;;;8.77;100.00
60871;BME280;46714;50.118;14.462;2024-02-16T11:06:16;99132.88;;;8.84;100.00
60871;BME280;46714;50.118;14.462;2024-02-16T11:08:42;99133.34;;;8.94;100.00
60871;BME280;46714;50.118;14.462;2024-02-16T11:11:08;99131.25;;;8.96;100.00
60871;BME280;46714;50.118;14.462;2024-02-16T11:13:36;99133.75;;;8.97;100.00
60871;BME280;46714;50.118;14.462;2024-02-16T11:16:03;99133.75;;;9.04;100.00
60871;BME280;46714;50.118;14.462;2024-02-16T11:18:32;99125.63;;;9.04;100.00
60871;BME280;46714;50.118;14.462;2024-02-16T11:21:02;99126.69;;;9.10;100.00
60871;BME280;46714;50.118;14.462;2024-02-16T11:23:35;99117.69;;;9.09;100.00
60871;BME280;46714;50.118;14.462;2024-02-16T11:26:01;99114.38;;;9.07;100.00
60871;BME280;46714;50.118;14.462;2024-02-16T11:28:28;99106.00;;;9.09;100.00
60871;BME280;46714;50.118;14.462;2024-02-16T11:30:57;99118.75;;;9.15;100.00
60871;BME280;46714;50.118;14.462;2024-02-16T11:33:26;99111.66;;;9.20;100.00
60871;BME280;46714;50.118;14.462;2024-02-16T11:35:58;99110.63;;;9.21;100.00
60871;BME280;46714;50.118;14.462;2024-02-16T11:38:25;99113.97;;;9.23;100.00
60871;BME280;46714;50.118;14.462;2024-02-16T11:40:57;99113.34;;;9.28;100.00
60871;BME280;46714;50.118;14.462;2024-02-16T11:43:32;99115.44;;;9.33;100.00
60871;BME280;46714;50.118;14.462;2024-02-16T11:45:58;99104.97;;;9.36;100.00
60871;BME280;46714;50.118;14.462;2024-02-16T11:48:24;99108.94;;;9.40;100.00
60871;BME280;46714;50.118;14.462;2024-02-16T11:51:01;99096.63;;;9.44;100.00
60871;BME280;46714;50.118;14.462;2024-02-16T11:53:28;99106.25;;;9.47;100.00
60871;BME280;46714;50.118;14.462;2024-02-16T11:55:54;99102.69;;;9.53;100.00
60871;BME280;46714;50.118;14.462;2024-02-16T11:58:20;99102.06;;;9.58;100.00
60871;BME280;46714;50.118;14.462;2024-02-16T12:00:46;99096.00;;;9.56;98.76
60871;BME280;46714;50.118;14.462;2024-02-16T12:03:18;99102.69;;;9.53;99.28
60871;BME280;46714;50.118;14.462;2024-02-16T12:05:59;99100.81;;;9.54;99.28
60871;BME280;46714;50.118;14.462;2024-02-16T12:08:31;99098.72;;;9.56;100.00
60871;BME280;46714;50.118;14.462;2024-02-16T12:11:01;99091.19;;;9.58;100.00
60871;BME280;46714;50.118;14.462;2024-02-16T12:13:27;99091.59;;;9.61;99.46
60871;BME280;46714;50.118;14.462;2024-02-16T12:15:53;99088.25;;;9.66;100.00
60871;BME280;46714;50.118;14.462;2024-02-16T12:18:19;99093.69;;;9.73;99.33
60871;BME280;46714;50.118;14.462;2024-02-16T12:20:45;99090.13;;;9.79;100.00
60871;BME280;46714;50.118;14.462;2024-02-16T12:23:13;99091.13;;;9.84;99.25
60871;BME280;46714;50.118;14.462;2024-02-16T12:25:39;99088.66;;;9.90;98.91
60871;BME280;46714;50.118;14.462;2024-02-16T12:28:04;99097.00;;;9.95;97.76
60871;BME280;46714;50.118;14.462;2024-02-16T12:30:30;99095.94;;;9.96;97.92
60871;BME280;46714;50.118;14.462;2024-02-16T12:32:55;99085.69;;;9.98;97.99
60871;BME280;46714;50.118;14.462;2024-02-16T12:35:21;99087.56;;;9.97;98.28
60871;BME280;46714;50.118;14.462;2024-02-16T12:37:46;99084.84;;;9.97;98.11
60871;BME280;46714;50.118;14.462;2024-02-16T12:40:12;99082.75;;;9.99;98.42
60871;BME280;46714;50.118;14.462;2024-02-16T12:42:38;99082.94;;;10.04;98.30
60871;BME280;46714;50.118;14.462;2024-02-16T12:45:03;99081.69;;;10.07;97.35
60871;BME280;46714;50.118;14.462;2024-02-16T12:47:29;99080.22;;;10.11;97.29